Time;durP1;ratioP1;P1;durP2;ratioP2;P2;SDS_P1;SDS_P2;PMS_P1;PMS_P2;Temp;Humidity;BMP_temperature;BMP_pressure;BME280_temperature;BME280_humidity;BME280_pressure;Samples;Min_cycle;Max_cycle;Signal;HPM_P1;HPM_P2
2021/11/11 03:47:41;;;;;;;86.72;45.63;;;8.00;99.90;;;;;;4868856;29;20056;-79
2021/11/11 03:50:07;;;;;;;80.20;44.30;;;8.00;99.90;;;;;;4840037;29;20049;-79
2021/11/11 03:52:34;;;;;;;90.97;47.33;;;8.00;99.90;;;;;;4837168;29;20045;-79
2021/11/11 03:55:00;;;;;;;88.32;46.10;;;8.00;99.90;;;;;;4852631;29;20078;-79
2021/11/11 03:57:26;;;;;;;88.13;46.65;;;8.00;99.90;;;;;;4826803;29;20033;-79
2021/11/11 03:59:52;;;;;;;82.30;44.22;;;8.00;99.90;;;;;;4840541;29;20385;-79
2021/11/11 04:02:23;;;;;;;96.78;47.22;;;8.00;99.90;;;;;;4825960;29;20025;-79
2021/11/11 04:04:50;;;;;;;91.85;46.03;;;8.00;99.90;;;;;;4855892;29;20033;-79
2021/11/11 04:07:16;;;;;;;82.93;45.00;;;8.00;99.90;;;;;;4870790;29;20026;-79
2021/11/11 04:09:42;;;;;;;89.85;47.97;;;8.00;99.90;;;;;;4855467;29;20109;-79
2021/11/11 04:12:08;;;;;;;90.05;46.75;;;8.00;99.90;;;;;;4832269;29;20333;-79
2021/11/11 04:14:35;;;;;;;85.50;46.40;;;8.00;99.90;;;;;;4852236;29;20368;-79
2021/11/11 04:17:01;;;;;;;86.93;46.30;;;8.00;99.90;;;;;;4852790;29;20026;-80
2021/11/11 04:19:28;;;;;;;;;;;7.90;99.90;;;;;;4856023;29;20034;-79
2021/11/11 04:21:54;;;;;;;86.80;45.40;;;7.90;99.90;;;;;;4839992;29;19918;-79
2021/11/11 04:24:20;;;;;;;88.45;45.58;;;7.90;99.90;;;;;;4824816;29;20037;-79
2021/11/11 04:27:14;;;;;;;91.50;48.22;;;7.90;99.90;;;;;;4838259;29;20348;-79
2021/11/11 04:29:37;;;;;;;;;;;7.90;99.90;;;;;;4857787;29;20034;-79
2021/11/11 04:32:06;;;;;;;87.22;45.60;;;7.80;99.90;;;;;;4828549;29;19920;-80
2021/11/11 04:34:34;;;;;;;87.88;45.65;;;7.80;99.90;;;;;;4855370;29;20263;-80
2021/11/11 04:37:19;;;;;;;93.88;47.60;;;7.80;99.90;;;;;;4870199;29;20069;-79
2021/11/11 05:03:39;;;;;;;102.10;51.47;;;7.80;99.90;;;;;;4850741;29;20113;-80
2021/11/11 05:06:06;;;;;;;99.28;49.28;;;7.80;99.90;;;;;;4830861;29;20045;-80
2021/11/11 05:08:32;;;;;;;;;;;7.80;99.90;;;;;;4830363;29;20056;-80
2021/11/11 05:11:01;;;;;;;98.30;50.67;;;7.80;99.90;;;;;;4824799;29;20148;-80
2021/11/11 05:13:29;;;;;;;96.30;51.95;;;7.80;99.90;;;;;;4869744;29;20327;-80
2021/11/11 05:15:57;;;;;;;96.07;50.58;;;7.80;99.90;;;;;;4854619;29;20085;-80
2021/11/11 05:18:24;;;;;;;99.53;50.92;;;7.80;99.90;;;;;;4869765;29;20325;-80
2021/11/11 05:20:50;;;;;;;102.22;52.65;;;7.90;99.90;;;;;;4839316;29;20108;-80
2021/11/11 05:23:16;;;;;;;99.63;52.40;;;7.80;99.90;;;;;;4859889;29;20030;-80
2021/11/11 05:25:43;;;;;;;94.53;51.28;;;7.80;99.90;;;;;;4845613;29;20034;-80
2021/11/11 05:28:11;;;;;;;92.20;51.22;;;7.80;99.90;;;;;;4844794;29;20030;-80
2021/11/11 05:30:38;;;;;;;98.30;51.95;;;7.80;99.90;;;;;;4815528;29;20033;-80
2021/11/11 05:33:04;;;;;;;102.13;52.15;;;7.80;99.90;;;;;;4851054;29;20146;-80
2021/11/11 05:35:30;;;;;;;99.28;50.55;;;7.80;99.90;;;;;;4823801;29;20064;-80
2021/11/11 05:37:57;;;;;;;;;;;7.90;99.90;;;;;;4833418;29;20045;-80
2021/11/11 05:40:25;;;;;;;101.05;52.65;;;7.80;99.90;;;;;;4851363;29;20104;-80
2021/11/11 05:42:52;;;;;;;108.50;53.85;;;7.80;99.90;;;;;;4820818;29;20599;-80
2021/11/11 05:45:19;;;;;;;99.55;50.85;;;7.80;99.90;;;;;;4850878;29;20030;-80
2021/11/11 05:47:48;;;;;;;98.80;51.90;;;7.90;99.90;;;;;;4848376;29;20042;-80
2021/11/11 05:50:16;;;;;;;102.45;53.33;;;7.90;99.90;;;;;;4838672;29;20400;-80
2021/11/11 05:52:42;;;;;;;106.63;53.67;;;7.90;99.90;;;;;;4823391;29;20041;-80
2021/11/11 05:55:09;;;;;;;;;;;7.90;99.90;;;;;;4846146;29;20053;-80
2021/11/11 05:57:36;;;;;;;101.68;52.33;;;7.90;99.90;;;;;;4854603;29;19908;-80
2021/11/11 06:00:04;;;;;;;;;;;7.90;99.90;;;;;;4838364;29;20357;-80
2021/11/11 06:02:43;;;;;;;103.60;52.42;;;7.90;99.90;;;;;;4866304;29;19912;-80
2021/11/11 06:05:12;;;;;;;102.20;52.47;;;7.90;99.90;;;;;;4873024;29;20229;-80
2021/11/11 06:07:40;;;;;;;96.57;49.22;;;7.90;99.90;;;;;;4872836;29;20101;-80
2021/11/11 06:10:07;;;;;;;106.65;53.90;;;8.00;99.90;;;;;;4857308;29;20041;-80
2021/11/11 06:12:33;;;;;;;;;;;8.00;99.90;;;;;;4875275;29;20285;-80
2021/11/11 06:15:00;;;;;;;103.90;52.50;;;8.00;99.90;;;;;;4883567;29;19908;-80
2021/11/11 06:17:26;;;;;;;;;;;8.00;99.90;;;;;;4855205;29;20286;-80
2021/11/11 06:19:53;;;;;;;97.60;51.60;;;8.00;99.90;;;;;;4888090;29;20231;-80
2021/11/11 06:22:21;;;;;;;97.57;52.65;;;7.90;99.90;;;;;;4874525;29;20053;-80
2021/11/11 06:24:47;;;;;;;97.30;53.83;;;8.00;99.90;;;;;;4854142;29;20028;-80
2021/11/11 06:27:13;;;;;;;102.50;54.92;;;7.90;99.90;;;;;;4873715;29;20041;-80
2021/11/11 06:29:39;;;;;;;96.03;53.58;;;7.90;99.90;;;;;;4859491;29;20036;-80
2021/11/11 06:32:06;;;;;;;104.63;54.30;;;7.90;99.90;;;;;;4883486;29;20044;-80
2021/11/11 06:34:34;;;;;;;97.43;54.28;;;8.00;99.90;;;;;;4858278;29;20054;-80
2021/11/11 06:37:00;;;;;;;97.38;52.30;;;8.00;99.90;;;;;;4859302;29;20041;-80
2021/11/11 06:39:26;;;;;;;92.68;51.10;;;8.10;99.90;;;;;;4874699;29;20112;-80
2021/11/11 06:41:52;;;;;;;95.68;51.72;;;8.00;99.90;;;;;;4874499;29;20146;-80
2021/11/11 06:44:22;;;;;;;90.53;50.63;;;8.00;99.90;;;;;;4844208;29;20056;-80
2021/11/11 06:46:51;;;;;;;96.40;51.25;;;8.00;99.90;;;;;;4838001;29;20053;-80
2021/11/11 06:49:18;;;;;;;99.45;53.13;;;8.00;99.90;;;;;;4872212;29;20081;-80
2021/11/11 06:51:44;;;;;;;94.57;49.43;;;8.00;99.90;;;;;;4852319;29;20041;-80
2021/11/11 06:54:10;;;;;;;95.38;51.30;;;8.00;99.90;;;;;;4853070;29;20317;-80
2021/11/11 06:56:36;;;;;;;93.30;50.97;;;8.10;99.90;;;;;;4851949;29;20034;-80
2021/11/11 06:59:03;;;;;;;86.50;49.10;;;8.10;99.90;;;;;;4826341;29;20081;-80
2021/11/11 07:01:33;;;;;;;97.20;50.58;;;8.10;99.90;;;;;;4867654;29;20310;-80
2021/11/11 07:04:00;;;;;;;94.38;52.17;;;8.10;99.90;;;;;;4830842;29;20041;-81
2021/11/11 07:06:26;;;;;;;92.85;50.80;;;8.00;99.90;;;;;;4846336;29;20270;-80
2021/11/11 07:08:52;;;;;;;100.40;51.88;;;8.00;99.90;;;;;;4831609;29;20045;-80
2021/11/11 07:11:18;;;;;;;97.43;51.55;;;8.00;99.90;;;;;;4847681;29;20270;-80
2021/11/11 07:13:43;;;;;;;93.03;50.08;;;8.00;99.90;;;;;;4829857;29;20074;-80
2021/11/11 07:16:09;;;;;;;97.03;51.25;;;8.00;99.90;;;;;;4849895;29;20101;-80
2021/11/11 07:18:35;;;;;;;99.00;49.40;;;8.00;99.90;;;;;;4828508;29;20364;-80
2021/11/11 07:21:01;;;;;;;93.68;51.15;;;8.00;99.90;;;;;;4829777;29;20021;-80
2021/11/11 07:23:28;;;;;;;101.43;51.90;;;8.00;99.90;;;;;;4862751;29;20038;-80
2021/11/11 07:25:54;;;;;;;90.03;50.57;;;8.10;99.90;;;;;;4830534;29;20025;-80
2021/11/11 07:28:21;;;;;;;98.15;50.53;;;8.10;99.90;;;;;;4862465;29;20037;-79
2021/11/11 07:30:47;;;;;;;96.93;51.25;;;8.10;99.90;;;;;;4836587;29;20029;-79
2021/11/11 07:33:14;;;;;;;99.15;50.13;;;8.10;99.90;;;;;;4859215;29;20057;-80
2021/11/11 07:35:42;;;;;;;101.07;51.55;;;8.10;99.90;;;;;;4832195;29;20042;-80
2021/11/11 07:38:10;;;;;;;102.72;51.38;;;8.00;99.90;;;;;;4852438;29;20063;-80
2021/11/11 07:40:36;;;;;;;99.28;50.90;;;8.10;99.90;;;;;;4861837;29;20029;-80
2021/11/11 07:43:03;;;;;;;108.18;53.47;;;8.00;99.90;;;;;;4833686;29;20090;-79
2021/11/11 07:45:36;;;;;;;109.05;53.15;;;8.00;99.90;;;;;;4845911;29;20500;-80
2021/11/11 07:48:02;;;;;;;110.43;55.25;;;8.00;99.90;;;;;;4846451;29;20039;-80
2021/11/11 07:50:30;;;;;;;115.53;54.85;;;8.00;99.90;;;;;;4830070;29;20029;-80
2021/11/11 07:52:59;;;;;;;119.93;56.13;;;8.00;99.90;;;;;;4847177;29;20036;-80
2021/11/11 07:55:25;;;;;;;126.50;57.95;;;8.00;99.90;;;;;;4838699;29;20213;-79
2021/11/11 07:57:51;;;;;;;115.25;56.30;;;8.00;99.90;;;;;;4862673;29;20026;-79
2021/11/11 08:00:19;;;;;;;122.55;57.42;;;8.10;99.90;;;;;;4862665;29;20248;-79
2021/11/11 08:02:46;;;;;;;132.23;60.58;;;8.10;99.90;;;;;;4854044;29;20321;-79
2021/11/11 08:05:15;;;;;;;138.20;64.05;;;8.00;99.90;;;;;;4831954;29;20270;-80
2021/11/11 08:07:48;;;;;;;122.82;60.47;;;7.90;99.90;;;;;;4860913;29;20026;-79
2021/11/11 08:10:17;;;;;;;133.60;60.20;;;7.90;99.90;;;;;;4849900;29;20389;-79
2021/11/11 08:12:43;;;;;;;154.75;70.15;;;7.90;99.90;;;;;;4859947;29;20041;-79
2021/11/11 08:15:10;;;;;;;133.05;61.63;;;7.90;99.90;;;;;;4846733;29;20021;-79
2021/11/11 08:17:36;;;;;;;138.53;63.53;;;7.90;99.90;;;;;;4853676;29;20029;-78
2021/11/11 08:20:03;;;;;;;141.52;63.72;;;7.80;99.90;;;;;;4843142;29;20061;-78
2021/11/11 08:22:29;;;;;;;132.25;62.13;;;7.90;99.90;;;;;;4860705;29;20034;-78
2021/11/11 08:24:56;;;;;;;130.05;62.33;;;8.00;99.90;;;;;;4843666;29;20073;-79
2021/11/11 08:27:24;;;;;;;131.43;62.30;;;8.00;99.90;;;;;;4831417;29;20075;-79
2021/11/11 08:29:50;;;;;;;128.65;58.28;;;8.00;99.90;;;;;;4850716;29;20106;-79
2021/11/11 08:32:17;;;;;;;131.33;59.30;;;8.00;99.90;;;;;;4860498;29;20101;-79
2021/11/11 08:34:45;;;;;;;119.43;59.38;;;8.10;99.90;;;;;;4828109;29;20029;-80
2021/11/11 08:37:11;;;;;;;131.13;61.63;;;8.10;99.90;;;;;;4857738;29;20073;-79
2021/11/11 08:39:39;;;;;;;119.07;57.90;;;8.10;99.90;;;;;;4814985;29;20022;-79
2021/11/11 08:42:08;;;;;;;118.65;58.00;;;8.20;99.90;;;;;;4857899;29;20081;-79
2021/11/11 08:44:34;;;;;;;116.40;58.22;;;8.20;99.90;;;;;;4858521;29;20226;-79
2021/11/11 08:47:00;;;;;;;119.90;55.80;;;8.20;99.90;;;;;;4849495;29;20054;-79
2021/11/11 08:49:27;;;;;;;119.57;55.97;;;8.30;99.90;;;;;;4846288;29;20286;-79
2021/11/11 08:51:53;;;;;;;115.90;56.67;;;8.20;99.90;;;;;;4848763;29;20210;-79
2021/11/11 08:54:21;;;;;;;110.78;54.72;;;8.20;99.90;;;;;;4843498;29;20038;-79
2021/11/11 08:56:48;;;;;;;115.13;57.08;;;8.20;99.90;;;;;;4861392;29;20300;-79
2021/11/11 08:59:18;;;;;;;;;;;8.20;99.90;;;;;;4857220;29;20046;-79
2021/11/11 09:01:45;;;;;;;119.65;55.10;;;8.30;99.90;;;;;;4849432;29;20131;-79
2021/11/11 09:04:11;;;;;;;112.22;55.55;;;8.20;99.90;;;;;;4841501;29;20404;-79
2021/11/11 09:06:38;;;;;;;118.60;54.85;;;8.20;99.90;;;;;;4840934;29;20050;-79
2021/11/11 09:09:05;;;;;;;126.10;56.25;;;8.30;99.90;;;;;;4861321;29;20089;-79
2021/11/11 09:11:30;;;;;;;118.87;53.70;;;8.30;99.90;;;;;;4825604;29;20052;-79
2021/11/11 09:13:56;;;;;;;119.88;55.45;;;8.20;99.90;;;;;;4856729;29;20327;-79
2021/11/11 09:16:24;;;;;;;116.85;54.53;;;8.20;99.90;;;;;;4861378;29;20097;-79
2021/11/11 09:18:50;;;;;;;119.88;55.35;;;8.30;99.90;;;;;;4826172;29;20389;-80
2021/11/11 09:21:16;;;;;;;125.03;58.05;;;8.20;99.90;;;;;;4832317;29;20049;-79
2021/11/11 09:23:42;;;;;;;116.35;55.60;;;8.20;99.90;;;;;;4820327;29;20037;-79
2021/11/11 09:26:08;;;;;;;124.15;56.45;;;8.20;99.90;;;;;;4862267;29;20093;-79
2021/11/11 09:28:37;;;;;;;117.63;53.08;;;8.10;99.90;;;;;;4882050;29;20029;-79
2021/11/11 09:31:03;;;;;;;114.28;53.42;;;8.20;99.90;;;;;;4852948;29;20101;-80
2021/11/11 09:33:30;;;;;;;113.38;54.42;;;8.20;99.90;;;;;;4874663;29;20229;-79
2021/11/11 09:35:57;;;;;;;115.47;53.58;;;8.20;99.90;;;;;;4868266;29;20325;-79
2021/11/11 09:38:24;;;;;;;113.38;54.85;;;8.20;99.90;;;;;;4838085;29;20034;-79
2021/11/11 09:40:51;;;;;;;114.88;53.15;;;8.20;99.90;;;;;;4852708;29;20034;-79
2021/11/11 09:43:17;;;;;;;112.35;53.88;;;8.20;99.90;;;;;;4852632;29;20029;-79
2021/11/11 09:45:46;;;;;;;119.07;53.40;;;8.20;99.90;;;;;;4834516;29;20079;-78
2021/11/11 09:48:17;;;;;;;118.70;54.60;;;8.20;99.90;;;;;;4868122;29;20056;-78
2021/11/11 09:50:45;;;;;;;124.03;54.97;;;8.20;99.90;;;;;;4853013;29;20328;-79
2021/11/11 09:53:14;;;;;;;118.88;55.55;;;8.30;99.90;;;;;;4817272;29;20038;-79
2021/11/11 09:58:43;;;;;;;124.70;52.40;;;8.20;99.90;;;;;;4864799;29;20038;-78
2021/11/11 10:01:13;;;;;;;113.05;52.63;;;8.20;99.90;;;;;;4867911;29;20068;-78
2021/11/11 10:03:43;;;;;;;116.63;51.35;;;8.20;99.90;;;;;;4868092;29;20021;-78
2021/11/11 10:06:12;;;;;;;124.45;56.20;;;8.20;99.90;;;;;;4869147;29;20029;-78
2021/11/11 10:08:44;;;;;;;126.28;54.15;;;8.20;99.90;;;;;;4853042;29;20038;-79
2021/11/11 10:11:21;;;;;;;136.90;55.13;;;8.20;99.90;;;;;;4868090;29;20030;-79
2021/11/11 10:13:57;;;;;;;125.85;53.63;;;8.10;99.90;;;;;;4878019;29;20104;-79
2021/11/11 10:16:24;;;;;;;129.88;55.40;;;8.10;99.90;;;;;;4855870;29;20026;-79
2021/11/11 10:18:59;;;;;;;135.07;54.67;;;8.20;99.90;;;;;;4850296;29;20275;-78
2021/11/11 10:21:46;;;;;;;138.57;57.17;;;8.20;99.90;;;;;;4835018;29;20101;-79
2021/11/11 10:24:14;;;;;;;135.85;55.45;;;8.20;99.90;;;;;;4834908;29;20030;-79
2021/11/11 10:26:43;;;;;;;130.10;55.22;;;8.20;99.90;;;;;;4852123;29;20199;-79
2021/11/11 10:29:32;;;;;;;134.50;56.88;;;8.20;99.90;;;;;;4852782;29;20329;-79
2021/11/11 10:32:06;;;;;;;132.27;53.22;;;8.20;99.90;;;;;;4850357;29;20037;-79
2021/11/11 10:34:34;;;;;;;121.63;53.80;;;8.10;99.90;;;;;;4867741;29;20100;-79
2021/11/11 10:36:59;;;;;;;;;;;8.20;99.90;;;;;;4852733;29;20037;-79
2021/11/11 10:39:32;;;;;;;135.97;55.10;;;8.20;99.90;;;;;;4853144;29;19955;-79
2021/11/11 10:42:00;;;;;;;134.35;56.17;;;8.20;99.90;;;;;;4849561;29;20041;-79
2021/11/11 10:44:33;;;;;;;142.93;56.33;;;8.20;99.90;;;;;;4868005;29;20045;-80
2021/11/11 10:47:07;;;;;;;136.13;56.90;;;8.20;99.90;;;;;;4855577;29;20053;-79
2021/11/11 10:49:40;;;;;;;145.80;56.85;;;8.20;99.90;;;;;;4854158;29;20101;-79
2021/11/11 10:52:23;;;;;;;141.90;59.20;;;8.10;99.90;;;;;;4846154;29;20065;-79
2021/11/11 10:55:09;;;;;;;138.77;54.38;;;8.00;99.90;;;;;;4870016;29;20029;-79
2021/11/11 10:57:41;;;;;;;133.43;54.53;;;8.10;99.90;;;;;;4859646;29;20057;-79
2021/11/11 11:00:25;;;;;;;134.70;54.88;;;8.10;99.90;;;;;;4849136;29;20097;-79
2021/11/11 11:02:56;;;;;;;150.63;57.28;;;8.20;99.90;;;;;;4862280;29;20030;-79
2021/11/11 11:05:28;;;;;;;124.00;51.72;;;8.20;99.90;;;;;;4844889;29;20062;-79
2021/11/11 11:08:00;;;;;;;143.68;56.38;;;8.30;99.90;;;;;;4862912;29;20032;-79
2021/11/11 11:10:27;;;;;;;118.15;51.42;;;8.30;99.90;;;;;;4862207;29;20042;-79
2021/11/11 11:12:55;;;;;;;137.93;56.72;;;8.20;99.90;;;;;;4846866;29;20037;-79
2021/11/11 11:15:36;;;;;;;142.20;57.00;;;8.20;99.90;;;;;;4859494;29;20077;-79
2021/11/11 11:18:01;;;;;;;138.05;52.42;;;8.20;99.90;;;;;;4854465;29;20029;-79
2021/11/11 11:20:28;;;;;;;133.93;53.70;;;8.20;99.90;;;;;;4823623;29;20104;-79
2021/11/11 11:23:08;;;;;;;141.00;52.20;;;8.30;99.90;;;;;;4839744;29;20378;-79
2021/11/11 11:25:34;;;;;;;144.10;54.92;;;8.20;99.90;;;;;;4869007;29;20033;-80
2021/11/11 11:28:00;;;;;;;149.48;55.55;;;8.20;99.90;;;;;;4870286;29;20042;-79
2021/11/11 11:30:41;;;;;;;144.93;53.85;;;8.20;99.90;;;;;;4853017;29;20230;-79
2021/11/11 11:33:29;;;;;;;148.32;53.05;;;8.20;99.90;;;;;;4870186;29;20063;-80
2021/11/11 11:35:54;;;;;;;134.65;53.75;;;8.20;99.90;;;;;;4870260;29;20030;-79
2021/11/11 11:38:25;;;;;;;129.00;52.03;;;8.20;99.90;;;;;;4822245;29;20074;-79
2021/11/11 11:40:52;;;;;;;138.80;54.70;;;8.30;99.90;;;;;;4815513;29;20037;-79
2021/11/11 11:43:34;;;;;;;141.38;52.47;;;8.30;99.90;;;;;;4854627;29;20250;-79
2021/11/11 11:46:16;;;;;;;142.50;53.20;;;8.30;99.90;;;;;;4865362;29;20098;-79
2021/11/11 11:48:44;;;;;;;121.25;50.47;;;8.20;99.90;;;;;;4843600;29;20022;-79
2021/11/11 11:51:12;;;;;;;128.20;49.30;;;8.20;99.90;;;;;;4844375;29;20036;-79
2021/11/11 11:53:49;;;;;;;141.63;54.30;;;8.20;99.90;;;;;;4863215;29;20037;-79
2021/11/11 11:56:21;;;;;;;138.30;51.75;;;8.30;99.90;;;;;;4852132;29;20318;-80
2021/11/11 11:58:56;;;;;;;143.65;51.42;;;8.30;99.90;;;;;;4835260;29;20038;-79
2021/11/11 12:04:27;;;;;;;141.95;54.40;;;8.30;99.90;;;;;;4875231;29;20352;-79
2021/11/11 12:07:09;;;;;;;136.10;53.75;;;8.30;99.90;;;;;;4866428;29;20120;-80
2021/11/11 12:09:46;;;;;;;145.23;55.35;;;8.20;99.90;;;;;;4853758;29;20049;-80
2021/11/11 12:15:08;;;;;;;149.68;54.00;;;8.20;99.90;;;;;;4853847;29;20052;-80
2021/11/11 12:40:22;;;;;;;133.70;55.55;;;8.30;99.90;;;;;;4865098;29;20489;-80
2021/11/11 12:42:54;;;;;;;153.13;58.90;;;8.30;99.90;;;;;;4847579;29;20248;-80
2021/11/11 12:45:31;;;;;;;139.30;59.00;;;8.30;99.90;;;;;;4819615;29;20270;-80
2021/11/11 12:48:00;;;;;;;155.83;59.27;;;8.30;99.90;;;;;;4845533;29;20069;-80
2021/11/11 12:50:31;;;;;;;144.10;61.00;;;8.30;99.90;;;;;;4849188;29;20292;-80
2021/11/11 12:53:11;;;;;;;149.88;62.05;;;8.20;99.90;;;;;;4834016;29;20049;-79
2021/11/11 12:55:39;;;;;;;153.88;60.72;;;8.10;99.90;;;;;;4839978;29;20113;-80
2021/11/11 12:58:08;;;;;;;169.00;67.72;;;8.10;99.90;;;;;;4810256;29;20114;-79
2021/11/11 13:00:38;;;;;;;164.93;64.32;;;8.10;99.90;;;;;;4825912;29;20121;-80
2021/11/11 13:03:06;;;;;;;156.98;64.53;;;8.00;99.90;;;;;;4829286;29;20038;-80
2021/11/11 13:05:54;;;;;;;165.48;68.75;;;8.00;99.90;;;;;;4830596;29;20030;-80
2021/11/11 13:08:22;;;;;;;146.13;62.25;;;8.10;99.90;;;;;;4833176;29;20143;-80
2021/11/11 13:11:06;;;;;;;145.88;62.45;;;8.10;99.90;;;;;;4825678;29;20330;-80
2021/11/11 13:13:39;;;;;;;149.63;61.88;;;8.10;99.90;;;;;;4816303;29;20026;-80
2021/11/11 13:16:20;;;;;;;135.90;58.70;;;8.10;99.90;;;;;;4847865;29;20037;-80
2021/11/11 13:18:50;;;;;;;148.18;61.72;;;8.10;99.90;;;;;;4851262;29;20321;-80
2021/11/11 13:21:20;;;;;;;146.88;60.92;;;8.10;99.90;;;;;;4861985;29;20063;-80
2021/11/11 13:24:21;;;;;;;143.00;58.20;;;8.10;99.90;;;;;;4851231;29;20050;-80
2021/11/11 14:00:46;;;;;;;140.40;60.58;;;8.10;99.90;;;;;;4854981;29;20337;-79
2021/11/11 16:26:48;;;;;;;119.60;56.88;;;8.70;99.90;;;;;;4863821;29;19922;-80
2021/11/11 16:29:13;;;;;;;114.38;58.05;;;8.70;99.90;;;;;;4838448;29;20037;-80
2021/11/11 16:31:39;;;;;;;116.60;59.08;;;8.80;99.90;;;;;;4887439;29;20055;-80
2021/11/11 16:34:05;;;;;;;134.77;63.53;;;8.80;99.90;;;;;;4886811;29;20069;-80
2021/11/11 16:36:32;;;;;;;124.30;61.83;;;8.70;99.90;;;;;;4871808;29;20029;-80
2021/11/11 16:38:58;;;;;;;124.75;58.25;;;8.70;99.90;;;;;;4857592;29;20033;-80
2021/11/11 16:41:24;;;;;;;119.40;59.38;;;8.70;99.90;;;;;;4860572;29;20044;-80
2021/11/11 16:43:50;;;;;;;120.57;57.30;;;8.70;99.90;;;;;;4861439;29;20038;-79
2021/11/11 16:46:16;;;;;;;115.00;58.05;;;8.70;99.90;;;;;;4852340;29;20065;-80
2021/11/11 16:48:42;;;;;;;124.35;58.53;;;8.70;99.90;;;;;;4828035;29;20098;-79
2021/11/11 16:51:11;;;;;;;125.07;58.20;;;8.70;99.90;;;;;;4853920;29;20037;-79
2021/11/11 16:53:37;;;;;;;119.18;59.25;;;8.70;99.90;;;;;;4858620;29;20225;-79
2021/11/11 16:56:06;;;;;;;131.15;62.25;;;8.70;99.90;;;;;;4857520;29;20105;-79
2021/11/11 16:58:32;;;;;;;123.30;60.08;;;8.80;99.90;;;;;;4865367;29;20077;-80
2021/11/11 17:00:58;;;;;;;121.90;60.08;;;8.80;99.90;;;;;;4848957;29;20030;-80
2021/11/11 17:03:24;;;;;;;117.43;58.00;;;8.80;99.90;;;;;;4823279;29;20044;-80
2021/11/11 17:05:50;;;;;;;116.78;59.97;;;8.90;99.90;;;;;;4827165;29;20079;-80
2021/11/11 17:08:18;;;;;;;121.07;61.10;;;8.80;99.90;;;;;;4861606;29;20052;-80
2021/11/11 17:10:45;;;;;;;115.18;59.35;;;8.80;99.90;;;;;;4856220;29;20028;-80
2021/11/11 17:13:12;;;;;;;118.97;60.53;;;8.80;99.90;;;;;;4839926;29;20056;-79
2021/11/11 17:15:39;;;;;;;125.23;60.73;;;8.80;99.90;;;;;;4822431;29;20253;-79
2021/11/11 17:18:08;;;;;;;114.63;59.85;;;8.80;99.90;;;;;;4835876;29;20451;-79
2021/11/11 17:20:35;;;;;;;117.75;61.15;;;8.90;99.90;;;;;;4865342;29;20038;-79
2021/11/11 17:23:03;;;;;;;126.57;61.37;;;8.90;99.90;;;;;;4851041;29;20094;-79
2021/11/11 17:25:36;;;;;;;118.07;59.63;;;8.90;99.90;;;;;;4842933;29;20037;-79
2021/11/11 17:30:38;;;;;;;117.70;57.70;;;8.90;99.90;;;;;;4855157;29;20302;-79
2021/11/11 17:33:07;;;;;;;125.80;59.83;;;8.90;99.90;;;;;;4838226;29;20372;-79
2021/11/11 17:35:33;;;;;;;124.22;62.45;;;8.90;99.90;;;;;;4860700;29;20029;-79
2021/11/11 17:37:59;;;;;;;140.15;64.60;;;8.90;99.90;;;;;;4833958;29;20069;-79
2021/11/11 17:40:25;;;;;;;120.78;60.47;;;9.00;99.90;;;;;;4865338;29;20033;-79
2021/11/11 17:42:52;;;;;;;131.80;62.33;;;8.90;99.90;;;;;;4852723;29;20210;-80
2021/11/11 17:45:36;;;;;;;133.30;64.05;;;9.00;99.90;;;;;;4851992;29;20075;-79
2021/11/11 17:48:03;;;;;;;139.38;63.58;;;9.00;99.90;;;;;;4835783;29;20087;-79
2021/11/11 17:50:33;;;;;;;;;;;9.00;99.90;;;;;;4839707;29;20326;-79
2021/11/11 17:53:08;;;;;;;139.32;64.28;;;8.90;99.90;;;;;;4850350;29;19912;-79
2021/11/11 17:55:39;;;;;;;137.05;65.20;;;8.90;99.90;;;;;;4850589;29;20030;-79
2021/11/11 17:58:08;;;;;;;141.35;64.20;;;8.90;99.90;;;;;;4867576;29;20033;-79
2021/11/11 18:00:37;;;;;;;139.00;64.85;;;8.90;99.90;;;;;;4855593;29;20025;-79
2021/11/11 18:03:04;;;;;;;151.63;67.05;;;8.90;99.90;;;;;;4852189;29;20038;-79
2021/11/11 18:05:33;;;;;;;134.93;60.27;;;8.90;99.90;;;;;;4852042;29;20348;-79
2021/11/11 18:08:29;;;;;;;152.63;64.70;;;8.90;99.90;;;;;;4863004;29;20033;-79
2021/11/11 18:10:57;;;;;;;137.93;61.80;;;8.90;99.90;;;;;;4841456;29;20085;-79
2021/11/11 18:13:31;;;;;;;137.07;63.50;;;9.00;99.90;;;;;;4850722;29;20069;-80
2021/11/11 18:16:06;;;;;;;142.32;59.42;;;8.90;99.90;;;;;;4840033;29;20036;-80
2021/11/11 18:18:32;;;;;;;133.35;56.83;;;8.90;99.90;;;;;;4824413;29;20065;-80
2021/11/11 18:20:58;;;;;;;124.07;55.30;;;8.80;99.90;;;;;;4831008;29;20074;-80
2021/11/11 18:23:24;;;;;;;131.52;59.08;;;8.80;99.90;;;;;;4868137;29;20038;-80
2021/11/11 18:25:50;;;;;;;125.80;55.10;;;8.80;99.90;;;;;;4868188;29;20145;-80
2021/11/11 18:28:22;;;;;;;123.95;55.88;;;8.80;99.90;;;;;;4853681;29;20207;-80
2021/11/11 18:30:52;;;;;;;131.63;55.13;;;8.80;99.90;;;;;;4853091;29;20033;-80
2021/11/11 18:33:18;;;;;;;123.18;55.33;;;8.80;99.90;;;;;;4852541;29;20037;-80
2021/11/11 18:36:00;;;;;;;135.63;56.83;;;8.80;99.90;;;;;;4837911;29;20221;-80
2021/11/11 18:38:28;;;;;;;130.65;54.38;;;8.80;99.90;;;;;;4851514;29;20037;-80
2021/11/11 18:40:57;;;;;;;127.45;55.03;;;8.80;99.90;;;;;;4835355;29;20026;-80
2021/11/11 18:43:26;;;;;;;121.10;55.00;;;8.80;99.90;;;;;;4867940;29;20029;-80
2021/11/11 18:46:13;;;;;;;111.88;53.10;;;8.80;99.90;;;;;;4848512;29;20064;-80
2021/11/11 18:48:40;;;;;;;;;;;8.80;99.90;;;;;;4851382;29;20066;-80
2021/11/11 18:51:09;;;;;;;;;;;8.80;99.90;;;;;;4852745;29;19947;-80
2021/11/11 18:53:35;;;;;;;115.60;49.65;;;8.80;99.90;;;;;;4855051;29;19990;-80
2021/11/11 18:56:03;;;;;;;123.78;53.42;;;8.80;99.90;;;;;;4836434;29;20037;-81
2021/11/11 18:58:31;;;;;;;120.15;53.55;;;8.80;99.90;;;;;;4848647;29;20041;-80
2021/11/11 19:01:04;;;;;;;117.05;50.35;;;8.80;99.90;;;;;;4817221;29;20100;-80
2021/11/11 19:03:33;;;;;;;109.60;50.38;;;8.80;99.90;;;;;;4862127;29;20034;-80
2021/11/11 19:08:37;;;;;;;110.85;51.38;;;8.80;99.90;;;;;;4865981;29;20021;-80
2021/11/11 19:11:08;;;;;;;108.97;49.25;;;8.80;99.90;;;;;;4856310;29;20126;-80
2021/11/11 19:13:37;;;;;;;108.03;51.00;;;8.80;99.90;;;;;;4857349;29;20191;-81
2021/11/11 19:16:14;;;;;;;117.50;52.83;;;8.80;99.90;;;;;;4851583;29;20105;-80
2021/11/11 19:18:43;;;;;;;113.63;52.35;;;8.80;99.90;;;;;;4839611;29;20026;-80
2021/11/11 19:21:13;;;;;;;112.80;49.90;;;8.80;99.90;;;;;;4867504;29;20300;-80
2021/11/11 19:23:39;;;;;;;100.75;47.65;;;8.70;99.90;;;;;;4867051;29;20033;-80
2021/11/11 19:26:05;;;;;;;111.35;48.13;;;8.70;99.90;;;;;;4841162;29;20330;-80
2021/11/11 19:28:31;;;;;;;113.70;52.47;;;8.60;99.90;;;;;;4864405;29;20025;-80
2021/11/11 19:30:57;;;;;;;118.97;51.60;;;8.70;99.90;;;;;;4836560;29;20040;-80
2021/11/11 19:33:23;;;;;;;102.22;46.13;;;8.70;99.90;;;;;;4871336;29;20354;-80
2021/11/11 19:35:55;;;;;;;106.13;47.67;;;8.70;99.90;;;;;;4841109;29;20047;-80
2021/11/11 19:57:29;;;;;;;96.60;45.08;;;8.60;99.90;;;;;;4855185;29;20041;-80
2021/11/11 20:00:03;;;;;;;94.00;45.42;;;8.60;99.90;;;;;;4862839;29;20048;-80
2021/11/11 20:51:00;;;;;;;93.93;43.17;;;8.60;99.90;;;;;;4773814;29;20126;-79
2021/11/11 20:56:15;;;;;;;84.60;42.17;;;8.60;99.90;;;;;;4799474;29;20090;-78
